QTR646 OTHH-VNKT
Flight info
| Callsign | QTR646 |
|---|---|
| Flight time | N/A |
| Altitude | 35000 |
| Route | KUPRO N300 NOLSU P307 TONVO/N0456F390 A777 NADSO B524 ALPOR M504 TELEM A791 SASRO J62 JJP J20 LKN G598 SMR SMR |
| Aircraft | A333/H-SDE3GHIJ2J3J5M1RVWXY/LB2D1 |
Departure
| Time | 2026-05-05 07:16 |
|---|---|
| Airport | Hamad International Airport (OTHH) |
Arrival
| Time | N/A |
|---|---|
| Airport | Tribhuvan International Airport (VNKT) |
| Time | Latitude | Longitude | Altitude | Speed | Heading |
|---|---|---|---|---|---|
| 2026-05-05 06:35 | 25.26529 | 51.61284 | 34 ft | 0 kts | 248° |
| 2026-05-05 06:44 | 25.26529 | 51.61285 | 34 ft | 1 kts | 248° |
| 2026-05-05 06:44 | 25.26537 | 51.61309 | 34 ft | 4 kts | 248° |
| 2026-05-05 06:45 | 25.26546 | 51.61333 | 33 ft | 2 kts | 248° |
| 2026-05-05 06:45 | 25.26550 | 51.61342 | 32 ft | 1 kts | 237° |
| 2026-05-05 06:45 | 25.26528 | 51.61284 | 32 ft | 7 kts | 248° |
| 2026-05-05 06:46 | 25.26529 | 51.61284 | 34 ft | 0 kts | 248° |
| 2026-05-05 07:02 | 25.26532 | 51.61294 | 34 ft | 4 kts | 248° |
| 2026-05-05 07:02 | 25.26542 | 51.61322 | 34 ft | 4 kts | 248° |
| 2026-05-05 07:02 | 25.26551 | 51.61344 | 34 ft | 4 kts | 233° |
| 2026-05-05 07:03 | 25.26570 | 51.61361 | 33 ft | 4 kts | 192° |
| 2026-05-05 07:03 | 25.26596 | 51.61362 | 30 ft | 4 kts | 163° |
| 2026-05-05 07:03 | 25.26620 | 51.61352 | 32 ft | 4 kts | 158° |
| 2026-05-05 07:03 | 25.26631 | 51.61348 | 31 ft | 0 kts | 158° |
| 2026-05-05 07:08 | 25.26628 | 51.61349 | 34 ft | 1 kts | 158° |
| 2026-05-05 07:09 | 25.26610 | 51.61357 | 34 ft | 7 kts | 158° |
| 2026-05-05 07:09 | 25.26534 | 51.61390 | 34 ft | 13 kts | 158° |
| 2026-05-05 07:09 | 25.26449 | 51.61428 | 34 ft | 13 kts | 158° |
| 2026-05-05 07:09 | 25.26396 | 51.61498 | 34 ft | 12 kts | 89° |
| 2026-05-05 07:10 | 25.26421 | 51.61584 | 34 ft | 12 kts | 70° |
| 2026-05-05 07:10 | 25.26451 | 51.61669 | 34 ft | 12 kts | 68° |
| 2026-05-05 07:10 | 25.26483 | 51.61755 | 34 ft | 12 kts | 68° |
| 2026-05-05 07:10 | 25.26515 | 51.61843 | 33 ft | 13 kts | 68° |
| 2026-05-05 07:11 | 25.26549 | 51.61936 | 33 ft | 13 kts | 68° |
| 2026-05-05 07:11 | 25.26539 | 51.62027 | 31 ft | 13 kts | 137° |
| 2026-05-05 07:11 | 25.26463 | 51.62070 | 32 ft | 12 kts | 158° |
| 2026-05-05 07:11 | 25.26386 | 51.62104 | 33 ft | 12 kts | 158° |
| 2026-05-05 07:12 | 25.26308 | 51.62138 | 33 ft | 12 kts | 158° |
| 2026-05-05 07:12 | 25.26230 | 51.62172 | 33 ft | 12 kts | 158° |
| 2026-05-05 07:12 | 25.26153 | 51.62206 | 33 ft | 12 kts | 158° |
| 2026-05-05 07:12 | 25.26076 | 51.62240 | 33 ft | 12 kts | 158° |
| 2026-05-05 07:13 | 25.25997 | 51.62275 | 33 ft | 13 kts | 158° |
| 2026-05-05 07:13 | 25.25914 | 51.62312 | 33 ft | 13 kts | 158° |
| 2026-05-05 07:13 | 25.25829 | 51.62349 | 33 ft | 13 kts | 158° |
| 2026-05-05 07:13 | 25.25743 | 51.62388 | 33 ft | 14 kts | 158° |
| 2026-05-05 07:14 | 25.25653 | 51.62428 | 32 ft | 13 kts | 155° |
| 2026-05-05 07:14 | 25.25617 | 51.62504 | 31 ft | 11 kts | 79° |
| 2026-05-05 07:14 | 25.25665 | 51.62573 | 30 ft | 12 kts | 34° |
| 2026-05-05 07:14 | 25.25743 | 51.62587 | 30 ft | 11 kts | 349° |
| 2026-05-05 07:15 | 25.25777 | 51.62575 | 30 ft | 0 kts | 340° |
| 2026-05-05 07:15 | 25.25885 | 51.62529 | 31 ft | 45 kts | 338° |
| 2026-05-05 07:15 | 25.26361 | 51.62318 | 31 ft | 101 kts | 338° |
| 2026-05-05 07:16 | 25.27169 | 51.61958 | 30 ft | 148 kts | 341° |
| 2026-05-05 07:16 | 25.28245 | 51.61492 | 177 ft | 177 kts | 339° |
| 2026-05-05 07:16 | 25.29420 | 51.61025 | 680 ft | 183 kts | 338° |
| 2026-05-05 07:16 | 25.30597 | 51.60528 | 1388 ft | 179 kts | 338° |
| 2026-05-05 07:17 | 25.31759 | 51.60013 | 1911 ft | 183 kts | 339° |
| 2026-05-05 07:17 | 25.33061 | 51.59920 | 2073 ft | 201 kts | 18° |
| 2026-05-05 07:17 | 25.34138 | 51.60958 | 2248 ft | 219 kts | 62° |
| 2026-05-05 07:17 | 25.34594 | 51.62596 | 2603 ft | 226 kts | 75° |
| 2026-05-05 07:18 | 25.34975 | 51.64289 | 3062 ft | 227 kts | 73° |
| 2026-05-05 07:18 | 25.35437 | 51.65959 | 3544 ft | 227 kts | 70° |
| 2026-05-05 07:18 | 25.35967 | 51.67608 | 3882 ft | 228 kts | 68° |
| 2026-05-05 07:18 | 25.36517 | 51.69253 | 3963 ft | 228 kts | 71° |
| 2026-05-05 07:19 | 25.36671 | 51.71008 | 3976 ft | 238 kts | 94° |
| 2026-05-05 07:19 | 25.36376 | 51.72899 | 3980 ft | 259 kts | 101° |
| 2026-05-05 07:19 | 25.35958 | 51.74904 | 4161 ft | 274 kts | 102° |
| 2026-05-05 07:19 | 25.35520 | 51.76979 | 4655 ft | 278 kts | 102° |
| 2026-05-05 07:20 | 25.35087 | 51.79065 | 5260 ft | 279 kts | 101° |
| 2026-05-05 07:20 | 25.34659 | 51.81165 | 5869 ft | 281 kts | 101° |
| 2026-05-05 07:20 | 25.34233 | 51.83279 | 6458 ft | 283 kts | 100° |
| 2026-05-05 07:20 | 25.33812 | 51.85383 | 7008 ft | 286 kts | 100° |
| 2026-05-05 07:21 | 25.33375 | 51.87571 | 7590 ft | 289 kts | 100° |
| 2026-05-05 07:21 | 25.32939 | 51.89758 | 8181 ft | 293 kts | 100° |
| 2026-05-05 07:21 | 25.32498 | 51.91973 | 8798 ft | 297 kts | 99° |
| 2026-05-05 07:21 | 25.32051 | 51.94214 | 9433 ft | 300 kts | 99° |
| 2026-05-05 07:22 | 25.31603 | 51.96455 | 10025 ft | 304 kts | 99° |
| 2026-05-05 07:22 | 25.31132 | 51.98819 | 10356 ft | 320 kts | 100° |
| 2026-05-05 07:22 | 25.30646 | 52.01255 | 10567 ft | 338 kts | 100° |
| 2026-05-05 07:22 | 25.30126 | 52.03851 | 10783 ft | 355 kts | 100° |
| 2026-05-05 07:23 | 25.29582 | 52.06564 | 11046 ft | 367 kts | 100° |
| 2026-05-05 07:23 | 25.28985 | 52.09334 | 11489 ft | 375 kts | 103° |
| 2026-05-05 07:23 | 25.28185 | 52.12106 | 11993 ft | 380 kts | 107° |
| 2026-05-05 07:23 | 25.27314 | 52.14881 | 12520 ft | 385 kts | 107° |
| 2026-05-05 07:24 | 25.26425 | 52.17682 | 13046 ft | 388 kts | 107° |
| 2026-05-05 07:24 | 25.25527 | 52.20511 | 13585 ft | 392 kts | 108° |
| 2026-05-05 07:24 | 25.24622 | 52.23372 | 14054 ft | 396 kts | 108° |
| 2026-05-05 07:24 | 25.23713 | 52.26244 | 14588 ft | 397 kts | 108° |
| 2026-05-05 07:25 | 25.22802 | 52.29123 | 15144 ft | 398 kts | 108° |
| 2026-05-05 07:25 | 25.21889 | 52.32012 | 15691 ft | 399 kts | 109° |
| 2026-05-05 07:25 | 25.20973 | 52.34904 | 16210 ft | 400 kts | 109° |
| 2026-05-05 07:25 | 25.20052 | 52.37815 | 16714 ft | 402 kts | 109° |
| 2026-05-05 07:26 | 25.19127 | 52.40735 | 17215 ft | 404 kts | 110° |
| 2026-05-05 07:26 | 25.18197 | 52.43671 | 17714 ft | 406 kts | 110° |
| 2026-05-05 07:26 | 25.17263 | 52.46616 | 18182 ft | 408 kts | 110° |
| 2026-05-05 07:26 | 25.16323 | 52.49581 | 18598 ft | 410 kts | 110° |
| 2026-05-05 07:27 | 25.15378 | 52.52557 | 18965 ft | 413 kts | 110° |
| 2026-05-05 07:27 | 25.14423 | 52.55565 | 19346 ft | 416 kts | 110° |
| 2026-05-05 07:27 | 25.13416 | 52.58568 | 19731 ft | 418 kts | 114° |
| 2026-05-05 07:27 | 25.12232 | 52.61505 | 20097 ft | 420 kts | 116° |
| 2026-05-05 07:28 | 25.11145 | 52.64509 | 20465 ft | 424 kts | 107° |
| 2026-05-05 07:28 | 25.10425 | 52.67673 | 20846 ft | 427 kts | 103° |
| 2026-05-05 07:28 | 25.09845 | 52.70894 | 21226 ft | 429 kts | 101° |
| 2026-05-05 07:28 | 25.09355 | 52.74152 | 21598 ft | 432 kts | 99° |
| 2026-05-05 07:29 | 25.09059 | 52.76322 | 21840 ft | 433 kts | 99° |
| 2026-05-05 07:29 | 25.08483 | 52.80745 | 22332 ft | 437 kts | 99° |
| 2026-05-05 07:29 | 25.08199 | 52.82946 | 22568 ft | 439 kts | 99° |
| 2026-05-05 07:29 | 25.07762 | 52.86283 | 22930 ft | 441 kts | 99° |
| 2026-05-05 07:30 | 25.07315 | 52.89638 | 23271 ft | 443 kts | 99° |
| 2026-05-05 07:30 | 25.06393 | 52.96395 | 23853 ft | 448 kts | 99° |
| 2026-05-05 07:30 | 25.05921 | 52.99809 | 24102 ft | 451 kts | 99° |
| 2026-05-05 07:31 | 25.05444 | 53.03241 | 24344 ft | 455 kts | 99° |
| 2026-05-05 07:31 | 25.04962 | 53.06701 | 24594 ft | 458 kts | 99° |
| 2026-05-05 07:31 | 25.04478 | 53.10178 | 24851 ft | 460 kts | 99° |
| 2026-05-05 07:31 | 25.03990 | 53.13677 | 25102 ft | 463 kts | 100° |
| 2026-05-05 07:32 | 25.03499 | 53.17196 | 25357 ft | 466 kts | 100° |
| 2026-05-05 07:32 | 25.03004 | 53.20733 | 25610 ft | 468 kts | 100° |
| 2026-05-05 07:32 | 25.02506 | 53.24294 | 25860 ft | 471 kts | 100° |
| 2026-05-05 07:32 | 25.02005 | 53.27865 | 26097 ft | 473 kts | 100° |
| 2026-05-05 07:33 | 25.01499 | 53.31464 | 26345 ft | 476 kts | 100° |
| 2026-05-05 07:33 | 25.00990 | 53.35080 | 26582 ft | 479 kts | 100° |
| 2026-05-05 07:33 | 25.00478 | 53.38712 | 26814 ft | 481 kts | 100° |
| 2026-05-05 07:33 | 24.99962 | 53.42366 | 27054 ft | 483 kts | 100° |
| 2026-05-05 07:34 | 24.99442 | 53.46037 | 27283 ft | 486 kts | 100° |
| 2026-05-05 07:34 | 24.98919 | 53.49728 | 27518 ft | 488 kts | 100° |
| 2026-05-05 07:34 | 24.98395 | 53.53419 | 27813 ft | 488 kts | 100° |
| 2026-05-05 07:34 | 24.97867 | 53.57128 | 28039 ft | 491 kts | 101° |
| 2026-05-05 07:35 | 24.97348 | 53.60800 | 28244 ft | 494 kts | 99° |
| 2026-05-05 07:35 | 24.97055 | 53.64583 | 28443 ft | 497 kts | 94° |
| 2026-05-05 07:35 | 24.96922 | 53.68394 | 28676 ft | 499 kts | 93° |
| 2026-05-05 07:35 | 24.96856 | 53.72276 | 28883 ft | 501 kts | 92° |
| 2026-05-05 07:36 | 24.96834 | 53.76127 | 29090 ft | 504 kts | 91° |
| 2026-05-05 07:36 | 24.96832 | 53.79992 | 29257 ft | 506 kts | 91° |
| 2026-05-05 07:36 | 24.96836 | 53.83879 | 29479 ft | 508 kts | 91° |
| 2026-05-05 07:36 | 24.96839 | 53.87787 | 29669 ft | 510 kts | 91° |
| 2026-05-05 07:37 | 24.96837 | 53.91706 | 29860 ft | 512 kts | 91° |
| 2026-05-05 07:37 | 24.96831 | 53.95638 | 30016 ft | 514 kts | 91° |
| 2026-05-05 07:37 | 24.96821 | 53.99583 | 30181 ft | 516 kts | 91° |
| 2026-05-05 07:37 | 24.96809 | 54.03495 | 30338 ft | 518 kts | 91° |
| 2026-05-05 07:38 | 24.96794 | 54.07467 | 30497 ft | 519 kts | 91° |
| 2026-05-05 07:38 | 24.96778 | 54.11455 | 30661 ft | 521 kts | 91° |
| 2026-05-05 07:38 | 24.96761 | 54.15446 | 30826 ft | 522 kts | 91° |
| 2026-05-05 07:38 | 24.96742 | 54.19456 | 30978 ft | 524 kts | 91° |
| 2026-05-05 07:39 | 24.96723 | 54.23473 | 31131 ft | 525 kts | 91° |
| 2026-05-05 07:39 | 24.96703 | 54.27512 | 31302 ft | 527 kts | 91° |
| 2026-05-05 07:39 | 24.96681 | 54.31546 | 31486 ft | 527 kts | 91° |
| 2026-05-05 07:39 | 24.96659 | 54.35570 | 31812 ft | 524 kts | 91° |
| 2026-05-05 07:40 | 24.96636 | 54.39585 | 32065 ft | 523 kts | 91° |
| 2026-05-05 07:40 | 24.96612 | 54.43596 | 32247 ft | 524 kts | 91° |
| 2026-05-05 07:40 | 24.96586 | 54.47612 | 32439 ft | 524 kts | 91° |
| 2026-05-05 07:40 | 24.96559 | 54.51632 | 32643 ft | 525 kts | 91° |
| 2026-05-05 07:41 | 24.96531 | 54.55652 | 32859 ft | 524 kts | 91° |
| 2026-05-05 07:41 | 24.96503 | 54.59669 | 33066 ft | 524 kts | 91° |
| 2026-05-05 07:41 | 24.96473 | 54.63690 | 33273 ft | 525 kts | 91° |
| 2026-05-05 07:41 | 24.96442 | 54.67710 | 33473 ft | 525 kts | 91° |
| 2026-05-05 07:42 | 24.96410 | 54.71729 | 33662 ft | 525 kts | 91° |
| 2026-05-05 07:42 | 24.96377 | 54.75753 | 33857 ft | 525 kts | 91° |
| 2026-05-05 07:42 | 24.96359 | 54.79773 | 34004 ft | 525 kts | 88° |
| 2026-05-05 07:42 | 24.96719 | 54.83777 | 34166 ft | 525 kts | 80° |
| 2026-05-05 07:43 | 24.97338 | 54.87737 | 34371 ft | 524 kts | 79° |
| 2026-05-05 07:43 | 24.97856 | 54.91714 | 34561 ft | 524 kts | 84° |
| 2026-05-05 07:43 | 24.98206 | 54.95708 | 34722 ft | 524 kts | 85° |
| 2026-05-05 07:43 | 24.98502 | 54.99712 | 34788 ft | 524 kts | 86° |
| 2026-05-05 07:44 | 24.99024 | 55.07693 | 34802 ft | 521 kts | 86° |
| 2026-05-05 07:44 | 24.99536 | 55.15611 | 34802 ft | 521 kts | 86° |
| 2026-05-05 07:45 | 25.00071 | 55.23636 | 34802 ft | 521 kts | 86° |
| 2026-05-05 07:45 | 25.00607 | 55.31603 | 34788 ft | 521 kts | 86° |
| 2026-05-05 07:46 | 25.01141 | 55.39579 | 34786 ft | 522 kts | 86° |
| 2026-05-05 07:46 | 25.01670 | 55.47559 | 34783 ft | 521 kts | 86° |
| 2026-05-05 07:47 | 25.02189 | 55.55466 | 34788 ft | 520 kts | 86° |
| 2026-05-05 07:47 | 25.02707 | 55.63413 | 34789 ft | 519 kts | 86° |
| 2026-05-05 07:48 | 25.03220 | 55.71356 | 34795 ft | 519 kts | 86° |
| 2026-05-05 07:48 | 25.03729 | 55.79301 | 34803 ft | 520 kts | 86° |
| 2026-05-05 07:49 | 25.04235 | 55.87252 | 34799 ft | 520 kts | 86° |
| 2026-05-05 07:49 | 25.04736 | 55.95210 | 34802 ft | 520 kts | 86° |
| 2026-05-05 07:50 | 25.05233 | 56.03167 | 34806 ft | 520 kts | 86° |
| 2026-05-05 07:50 | 25.05727 | 56.11130 | 34808 ft | 520 kts | 86° |
| 2026-05-05 07:51 | 25.06215 | 56.19084 | 34813 ft | 521 kts | 86° |
| 2026-05-05 07:51 | 25.06700 | 56.27063 | 34828 ft | 521 kts | 86° |
| 2026-05-05 07:52 | 25.07180 | 56.35025 | 34827 ft | 520 kts | 86° |
| 2026-05-05 07:52 | 25.07657 | 56.42990 | 34829 ft | 521 kts | 86° |
| 2026-05-05 07:53 | 25.08085 | 56.50965 | 34826 ft | 520 kts | 91° |
| 2026-05-05 07:53 | 25.07227 | 56.58860 | 34832 ft | 519 kts | 102° |
| 2026-05-05 07:54 | 25.05807 | 56.66670 | 34811 ft | 520 kts | 103° |
| 2026-05-05 07:54 | 25.04280 | 56.74452 | 34810 ft | 519 kts | 104° |
| 2026-05-05 07:55 | 25.02760 | 56.82228 | 34810 ft | 519 kts | 103° |
| 2026-05-05 07:55 | 25.01257 | 56.90007 | 34810 ft | 519 kts | 103° |
| 2026-05-05 07:56 | 24.99759 | 56.97790 | 34812 ft | 519 kts | 103° |
| 2026-05-05 07:56 | 24.98258 | 57.05569 | 34812 ft | 519 kts | 103° |
| 2026-05-05 07:57 | 24.96750 | 57.13353 | 34810 ft | 519 kts | 103° |
| 2026-05-05 07:57 | 24.95239 | 57.21128 | 34811 ft | 519 kts | 103° |
| 2026-05-05 07:58 | 24.93724 | 57.28903 | 34809 ft | 519 kts | 103° |
| 2026-05-05 07:58 | 24.92206 | 57.36666 | 34807 ft | 518 kts | 103° |
| 2026-05-05 07:59 | 24.90696 | 57.44369 | 34807 ft | 518 kts | 103° |
| 2026-05-05 07:59 | 24.89171 | 57.52126 | 34808 ft | 518 kts | 103° |
| 2026-05-05 08:00 | 24.87643 | 57.59875 | 34810 ft | 518 kts | 103° |
| 2026-05-05 08:00 | 24.86109 | 57.67632 | 34813 ft | 518 kts | 103° |
| 2026-05-05 08:01 | 24.84572 | 57.75387 | 34806 ft | 519 kts | 103° |
| 2026-05-05 08:01 | 24.83028 | 57.83144 | 34795 ft | 519 kts | 103° |
| 2026-05-05 08:02 | 24.81463 | 57.90892 | 34809 ft | 518 kts | 104° |
| 2026-05-05 08:02 | 24.79888 | 57.98632 | 34811 ft | 518 kts | 104° |
| 2026-05-05 08:03 | 24.78309 | 58.06368 | 34809 ft | 518 kts | 104° |
| 2026-05-05 08:03 | 24.76728 | 58.14105 | 34805 ft | 518 kts | 104° |
| 2026-05-05 08:04 | 24.75143 | 58.21844 | 34805 ft | 518 kts | 104° |
| 2026-05-05 08:04 | 24.73554 | 58.29581 | 34809 ft | 519 kts | 104° |
| 2026-05-05 08:05 | 24.71959 | 58.37326 | 34809 ft | 519 kts | 104° |
| 2026-05-05 08:05 | 24.70361 | 58.45064 | 34810 ft | 519 kts | 104° |
| 2026-05-05 08:06 | 24.68758 | 58.52803 | 34810 ft | 519 kts | 104° |
| 2026-05-05 08:06 | 24.67151 | 58.60541 | 34803 ft | 519 kts | 104° |
| 2026-05-05 08:07 | 24.65540 | 58.68279 | 34805 ft | 519 kts | 104° |
| 2026-05-05 08:07 | 24.63926 | 58.76010 | 34808 ft | 519 kts | 104° |
| 2026-05-05 08:08 | 24.62306 | 58.83744 | 34810 ft | 519 kts | 104° |
| 2026-05-05 08:08 | 24.60684 | 58.91472 | 34810 ft | 519 kts | 104° |
| 2026-05-05 08:09 | 24.59058 | 58.99197 | 34809 ft | 519 kts | 104° |
| 2026-05-05 08:09 | 24.57438 | 59.06875 | 34805 ft | 519 kts | 104° |
| 2026-05-05 08:10 | 24.55793 | 59.14646 | 34807 ft | 519 kts | 104° |
| 2026-05-05 08:10 | 24.54157 | 59.22355 | 34810 ft | 519 kts | 104° |
| 2026-05-05 08:11 | 24.52526 | 59.30017 | 34811 ft | 519 kts | 104° |
| 2026-05-05 08:11 | 24.50880 | 59.37728 | 34809 ft | 519 kts | 104° |
| 2026-05-05 08:12 | 24.49230 | 59.45435 | 34809 ft | 519 kts | 104° |
| 2026-05-05 08:12 | 24.47575 | 59.53147 | 34813 ft | 519 kts | 104° |
| 2026-05-05 08:13 | 24.45919 | 59.60848 | 34814 ft | 519 kts | 104° |
| 2026-05-05 08:13 | 24.44256 | 59.68554 | 34802 ft | 519 kts | 104° |
| 2026-05-05 08:14 | 24.42590 | 59.76259 | 34812 ft | 519 kts | 104° |
| 2026-05-05 08:14 | 24.40920 | 59.83961 | 34812 ft | 518 kts | 104° |
| 2026-05-05 08:15 | 24.39248 | 59.91652 | 34812 ft | 519 kts | 104° |
| 2026-05-05 08:15 | 24.37854 | 59.98047 | 34812 ft | 519 kts | 104° |
| 2026-05-05 08:16 | 24.35888 | 60.07043 | 34810 ft | 519 kts | 104° |
| 2026-05-05 08:16 | 24.34489 | 60.13434 | 34809 ft | 519 kts | 104° |
| 2026-05-05 08:17 | 24.32801 | 60.21127 | 34811 ft | 519 kts | 104° |
| 2026-05-05 08:17 | 24.30834 | 60.30071 | 34807 ft | 519 kts | 104° |
| 2026-05-05 08:18 | 24.29414 | 60.36510 | 34810 ft | 519 kts | 104° |
| 2026-05-05 08:18 | 24.27716 | 60.44192 | 34812 ft | 518 kts | 104° |
| 2026-05-05 08:19 | 24.26015 | 60.51870 | 34813 ft | 518 kts | 104° |
| 2026-05-05 08:19 | 24.24323 | 60.59484 | 34816 ft | 518 kts | 104° |
| 2026-05-05 08:20 | 24.22616 | 60.67149 | 34815 ft | 518 kts | 104° |
| 2026-05-05 08:20 | 24.20906 | 60.74811 | 34815 ft | 518 kts | 104° |
| 2026-05-05 08:21 | 24.19193 | 60.82477 | 34818 ft | 518 kts | 104° |
| 2026-05-05 08:21 | 24.17479 | 60.90139 | 34816 ft | 518 kts | 104° |
| 2026-05-05 08:22 | 24.15759 | 60.97807 | 34816 ft | 518 kts | 104° |
| 2026-05-05 08:22 | 24.14041 | 61.05450 | 34824 ft | 517 kts | 104° |
| 2026-05-05 08:23 | 24.12319 | 61.13085 | 34819 ft | 516 kts | 105° |
| 2026-05-05 08:23 | 24.10594 | 61.20719 | 34820 ft | 517 kts | 105° |
| 2026-05-05 08:24 | 24.08866 | 61.28347 | 34820 ft | 517 kts | 105° |
| 2026-05-05 08:24 | 24.07634 | 61.36083 | 34822 ft | 517 kts | 96° |
| 2026-05-05 08:25 | 24.07065 | 61.43913 | 34821 ft | 516 kts | 94° |
| 2026-05-05 08:25 | 24.06616 | 61.51755 | 34823 ft | 516 kts | 94° |
| 2026-05-05 08:26 | 24.06171 | 61.59599 | 34822 ft | 516 kts | 94° |
| 2026-05-05 08:26 | 24.05708 | 61.67436 | 34820 ft | 516 kts | 94° |
| 2026-05-05 08:27 | 24.05231 | 61.75279 | 34812 ft | 516 kts | 94° |
| 2026-05-05 08:27 | 24.04748 | 61.83109 | 34824 ft | 515 kts | 94° |
| 2026-05-05 08:28 | 24.04263 | 61.90925 | 34825 ft | 515 kts | 94° |
| 2026-05-05 08:28 | 24.03775 | 61.98733 | 34823 ft | 515 kts | 94° |
| 2026-05-05 08:29 | 24.03283 | 62.06548 | 34824 ft | 515 kts | 94° |
| 2026-05-05 08:30 | 24.02537 | 62.18266 | 34822 ft | 515 kts | 94° |
| 2026-05-05 08:30 | 24.02035 | 62.26082 | 34830 ft | 515 kts | 94° |
| 2026-05-05 08:31 | 24.01529 | 62.33888 | 34824 ft | 515 kts | 94° |
| 2026-05-05 08:31 | 24.01019 | 62.41706 | 34822 ft | 515 kts | 94° |
| 2026-05-05 08:32 | 24.00505 | 62.49514 | 34825 ft | 515 kts | 94° |
| 2026-05-05 08:32 | 23.99987 | 62.57322 | 34825 ft | 515 kts | 94° |
| 2026-05-05 08:33 | 23.99465 | 62.65139 | 34823 ft | 515 kts | 94° |
| 2026-05-05 08:33 | 23.98938 | 62.72955 | 34822 ft | 515 kts | 94° |
| 2026-05-05 08:34 | 23.98408 | 62.80770 | 34823 ft | 515 kts | 94° |
| 2026-05-05 08:34 | 23.97878 | 62.88528 | 34822 ft | 515 kts | 94° |
| 2026-05-05 08:35 | 23.97340 | 62.96325 | 34820 ft | 514 kts | 94° |
| 2026-05-05 08:35 | 23.96800 | 63.04111 | 34822 ft | 514 kts | 94° |
| 2026-05-05 08:36 | 23.96256 | 63.11895 | 34829 ft | 514 kts | 95° |
| 2026-05-05 08:36 | 23.95708 | 63.19684 | 34824 ft | 514 kts | 95° |
| 2026-05-05 08:37 | 23.95155 | 63.27479 | 34823 ft | 514 kts | 95° |
| 2026-05-05 08:37 | 23.94598 | 63.35269 | 34823 ft | 514 kts | 95° |
| 2026-05-05 08:38 | 23.94038 | 63.43065 | 34825 ft | 514 kts | 95° |
| 2026-05-05 08:38 | 23.93473 | 63.50857 | 34824 ft | 515 kts | 95° |
| 2026-05-05 08:39 | 23.92904 | 63.58656 | 34821 ft | 515 kts | 95° |
| 2026-05-05 08:39 | 23.92331 | 63.66459 | 34821 ft | 515 kts | 95° |
| 2026-05-05 08:40 | 23.91754 | 63.74257 | 34824 ft | 515 kts | 95° |
| 2026-05-05 08:40 | 23.91172 | 63.82056 | 34819 ft | 515 kts | 95° |
| 2026-05-05 08:41 | 23.90588 | 63.89853 | 34816 ft | 515 kts | 95° |
| 2026-05-05 08:41 | 23.89999 | 63.97645 | 34817 ft | 514 kts | 95° |
| 2026-05-05 08:42 | 23.89408 | 64.05426 | 34826 ft | 513 kts | 95° |
| 2026-05-05 08:42 | 23.88813 | 64.13201 | 34817 ft | 514 kts | 95° |
| 2026-05-05 08:43 | 23.88214 | 64.20976 | 34817 ft | 514 kts | 95° |
| 2026-05-05 08:43 | 23.87610 | 64.28758 | 34817 ft | 514 kts | 95° |
| 2026-05-05 08:44 | 23.87003 | 64.36532 | 34817 ft | 514 kts | 95° |
| 2026-05-05 08:44 | 23.86392 | 64.44307 | 34817 ft | 513 kts | 95° |
| 2026-05-05 08:45 | 23.85778 | 64.52070 | 34820 ft | 513 kts | 95° |
| 2026-05-05 08:45 | 23.85160 | 64.59838 | 34817 ft | 513 kts | 95° |
| 2026-05-05 08:46 | 23.84538 | 64.67607 | 34818 ft | 513 kts | 95° |
| 2026-05-05 08:46 | 23.83911 | 64.75379 | 34817 ft | 513 kts | 95° |
| 2026-05-05 08:47 | 23.83353 | 64.83150 | 34818 ft | 513 kts | 90° |
| 2026-05-05 08:47 | 23.83300 | 64.90941 | 34820 ft | 513 kts | 89° |
| 2026-05-05 08:48 | 23.83342 | 64.98682 | 34821 ft | 513 kts | 89° |
| 2026-05-05 08:48 | 23.83402 | 65.06470 | 34818 ft | 513 kts | 89° |
| 2026-05-05 08:49 | 23.83452 | 65.14263 | 34816 ft | 513 kts | 89° |
| 2026-05-05 08:49 | 23.83491 | 65.22052 | 34809 ft | 513 kts | 89° |
| 2026-05-05 08:50 | 23.83523 | 65.29831 | 34819 ft | 511 kts | 89° |
| 2026-05-05 08:50 | 23.83552 | 65.37595 | 34816 ft | 511 kts | 89° |
| 2026-05-05 08:51 | 23.83577 | 65.45364 | 34815 ft | 511 kts | 89° |
| 2026-05-05 08:51 | 23.83598 | 65.53132 | 34815 ft | 512 kts | 89° |
| 2026-05-05 08:52 | 23.83616 | 65.60904 | 34819 ft | 512 kts | 89° |
| 2026-05-05 08:52 | 23.83629 | 65.68674 | 34815 ft | 512 kts | 89° |
| 2026-05-05 08:53 | 23.83639 | 65.76440 | 34815 ft | 511 kts | 89° |
| 2026-05-05 08:53 | 23.83644 | 65.84210 | 34815 ft | 512 kts | 89° |
| 2026-05-05 08:54 | 23.83646 | 65.91981 | 34815 ft | 512 kts | 89° |
| 2026-05-05 08:54 | 23.83644 | 65.99750 | 34815 ft | 512 kts | 89° |
| 2026-05-05 08:55 | 23.83638 | 66.07522 | 34815 ft | 512 kts | 89° |
| 2026-05-05 08:55 | 23.83628 | 66.15295 | 34815 ft | 512 kts | 89° |
| 2026-05-05 08:56 | 23.83614 | 66.23066 | 34816 ft | 512 kts | 89° |
| 2026-05-05 08:56 | 23.83597 | 66.30842 | 34819 ft | 513 kts | 89° |
| 2026-05-05 08:57 | 23.83575 | 66.38634 | 34814 ft | 513 kts | 89° |
| 2026-05-05 08:57 | 23.83550 | 66.46433 | 34814 ft | 513 kts | 89° |
| 2026-05-05 08:58 | 23.83520 | 66.54225 | 34814 ft | 513 kts | 89° |
| 2026-05-05 08:58 | 23.83487 | 66.62026 | 34814 ft | 514 kts | 89° |
| 2026-05-05 08:59 | 23.83450 | 66.69786 | 34816 ft | 515 kts | 89° |
| 2026-05-05 08:59 | 23.83408 | 66.77601 | 34819 ft | 515 kts | 89° |
| 2026-05-05 09:00 | 23.83362 | 66.85468 | 34814 ft | 515 kts | 89° |
| 2026-05-05 09:00 | 23.83314 | 66.93238 | 34814 ft | 515 kts | 89° |
| 2026-05-05 09:01 | 23.83563 | 67.01015 | 34811 ft | 512 kts | 80° |
| 2026-05-05 09:01 | 23.84669 | 67.08673 | 34814 ft | 509 kts | 78° |
| 2026-05-05 09:02 | 23.85932 | 67.16277 | 34819 ft | 508 kts | 78° |
| 2026-05-05 09:02 | 23.87217 | 67.23877 | 34816 ft | 509 kts | 78° |
| 2026-05-05 09:03 | 23.88280 | 67.30246 | 34818 ft | 509 kts | 78° |
| 2026-05-05 09:03 | 23.89536 | 67.37860 | 34817 ft | 509 kts | 78° |
| 2026-05-05 09:04 | 23.90775 | 67.45424 | 34820 ft | 509 kts | 78° |
| 2026-05-05 09:04 | 23.92018 | 67.53039 | 34822 ft | 509 kts | 78° |
| 2026-05-05 09:05 | 23.93262 | 67.60673 | 34820 ft | 511 kts | 78° |
| 2026-05-05 09:05 | 23.94505 | 67.68328 | 34819 ft | 512 kts | 78° |
| 2026-05-05 09:06 | 23.95744 | 67.75995 | 34811 ft | 512 kts | 78° |
| 2026-05-05 09:06 | 23.96980 | 67.83660 | 34812 ft | 512 kts | 78° |
| 2026-05-05 09:07 | 23.98213 | 67.91329 | 34818 ft | 512 kts | 78° |
| 2026-05-05 09:07 | 23.99442 | 67.99000 | 34804 ft | 512 kts | 78° |
| 2026-05-05 09:08 | 24.00668 | 68.06673 | 34808 ft | 512 kts | 78° |
| 2026-05-05 09:08 | 24.01889 | 68.14346 | 34808 ft | 512 kts | 78° |
| 2026-05-05 09:09 | 24.03107 | 68.22023 | 34812 ft | 512 kts | 78° |
| 2026-05-05 09:09 | 24.04321 | 68.29703 | 34805 ft | 513 kts | 78° |
| 2026-05-05 09:10 | 24.05524 | 68.37337 | 34803 ft | 513 kts | 78° |
| 2026-05-05 09:10 | 24.06732 | 68.45029 | 34804 ft | 513 kts | 78° |
| 2026-05-05 09:11 | 24.07936 | 68.52721 | 34795 ft | 513 kts | 78° |
| 2026-05-05 09:11 | 24.09136 | 68.60413 | 34791 ft | 513 kts | 78° |
| 2026-05-05 09:12 | 24.10333 | 68.68114 | 34801 ft | 513 kts | 78° |
| 2026-05-05 09:12 | 24.11443 | 68.75838 | 34798 ft | 515 kts | 84° |
| 2026-05-05 09:13 | 24.11595 | 68.83677 | 34784 ft | 516 kts | 89° |
| 2026-05-05 09:13 | 24.11502 | 68.91537 | 34780 ft | 515 kts | 90° |
| 2026-05-05 09:14 | 24.11358 | 68.99359 | 34777 ft | 514 kts | 90° |
| 2026-05-05 09:14 | 24.11223 | 69.07172 | 34785 ft | 513 kts | 90° |
| 2026-05-05 09:15 | 24.11099 | 69.14950 | 34781 ft | 507 kts | 89° |
| 2026-05-05 09:15 | 24.10977 | 69.22648 | 34791 ft | 505 kts | 89° |
| 2026-05-05 09:16 | 24.10852 | 69.30344 | 34781 ft | 506 kts | 89° |
| 2026-05-05 09:16 | 24.10722 | 69.38032 | 34770 ft | 501 kts | 89° |
| 2026-05-05 09:17 | 24.10590 | 69.45567 | 34776 ft | 491 kts | 89° |
| 2026-05-05 09:17 | 24.10458 | 69.53033 | 34775 ft | 491 kts | 89° |
| 2026-05-05 09:18 | 24.10322 | 69.60506 | 34777 ft | 492 kts | 89° |
| 2026-05-05 09:18 | 24.10181 | 69.67988 | 34770 ft | 492 kts | 90° |
| 2026-05-05 09:19 | 24.10035 | 69.75479 | 34776 ft | 492 kts | 90° |
| 2026-05-05 09:19 | 24.09886 | 69.82917 | 34788 ft | 492 kts | 90° |
| 2026-05-05 09:20 | 24.09733 | 69.90401 | 34782 ft | 492 kts | 90° |
| 2026-05-05 09:20 | 24.09577 | 69.97903 | 34780 ft | 493 kts | 90° |
| 2026-05-05 09:21 | 24.09416 | 70.05408 | 34776 ft | 493 kts | 90° |
| 2026-05-05 09:21 | 24.09252 | 70.12916 | 34795 ft | 493 kts | 90° |
| 2026-05-05 09:22 | 24.09084 | 70.20420 | 34807 ft | 493 kts | 90° |
| 2026-05-05 09:22 | 24.08912 | 70.27934 | 34788 ft | 495 kts | 90° |
| 2026-05-05 09:23 | 24.08737 | 70.35463 | 34805 ft | 495 kts | 90° |
| 2026-05-05 09:23 | 24.08557 | 70.43001 | 34797 ft | 495 kts | 90° |
| 2026-05-05 09:24 | 24.08374 | 70.50529 | 34812 ft | 495 kts | 90° |
| 2026-05-05 09:24 | 24.08186 | 70.58064 | 34805 ft | 495 kts | 89° |
| 2026-05-05 09:25 | 24.07995 | 70.65611 | 34801 ft | 497 kts | 89° |
| 2026-05-05 09:25 | 24.07801 | 70.73160 | 34800 ft | 497 kts | 90° |
| 2026-05-05 09:26 | 24.07602 | 70.80720 | 34804 ft | 497 kts | 90° |
| 2026-05-05 09:26 | 24.07399 | 70.88274 | 34811 ft | 497 kts | 90° |
| 2026-05-05 09:27 | 24.07361 | 70.95820 | 34802 ft | 494 kts | 81° |
| 2026-05-05 09:27 | 24.09059 | 71.02984 | 34800 ft | 482 kts | 60° |
| 2026-05-05 09:28 | 24.12314 | 71.09332 | 34799 ft | 477 kts | 53° |
| 2026-05-05 09:28 | 24.15853 | 71.15467 | 34798 ft | 476 kts | 52° |
| 2026-05-05 09:29 | 24.19397 | 71.21538 | 34802 ft | 476 kts | 53° |
| 2026-05-05 09:29 | 24.22936 | 71.27677 | 34795 ft | 477 kts | 53° |
| 2026-05-05 09:30 | 24.26454 | 71.33834 | 34792 ft | 477 kts | 53° |
| 2026-05-05 09:30 | 24.29967 | 71.40004 | 34793 ft | 477 kts | 53° |
| 2026-05-05 09:31 | 24.33474 | 71.46172 | 34793 ft | 477 kts | 53° |
| 2026-05-05 09:31 | 24.36981 | 71.52342 | 34784 ft | 477 kts | 53° |
| 2026-05-05 09:32 | 24.40485 | 71.58516 | 34786 ft | 477 kts | 53° |
| 2026-05-05 09:32 | 24.43988 | 71.64694 | 34785 ft | 477 kts | 53° |
| 2026-05-05 09:33 | 24.47486 | 71.70872 | 34787 ft | 477 kts | 53° |
| 2026-05-05 09:33 | 24.50981 | 71.77052 | 34809 ft | 477 kts | 53° |
| 2026-05-05 09:34 | 24.54475 | 71.83238 | 34789 ft | 476 kts | 52° |
| 2026-05-05 09:34 | 24.57984 | 71.89398 | 34790 ft | 475 kts | 52° |
| 2026-05-05 09:35 | 24.61501 | 71.95551 | 34791 ft | 475 kts | 52° |
| 2026-05-05 09:35 | 24.66768 | 72.04784 | 34791 ft | 475 kts | 52° |
| 2026-05-05 09:36 | 24.70274 | 72.10947 | 34794 ft | 475 kts | 52° |
| 2026-05-05 09:36 | 24.73779 | 72.17118 | 34802 ft | 475 kts | 52° |
| 2026-05-05 09:37 | 24.77280 | 72.23289 | 34795 ft | 475 kts | 52° |
| 2026-05-05 09:37 | 24.80793 | 72.29453 | 34811 ft | 475 kts | 52° |
| 2026-05-05 09:38 | 24.84320 | 72.35610 | 34807 ft | 475 kts | 52° |
| 2026-05-05 09:38 | 24.87847 | 72.41773 | 34815 ft | 476 kts | 52° |
| 2026-05-05 09:39 | 24.91346 | 72.47898 | 34817 ft | 476 kts | 51° |
| 2026-05-05 09:39 | 24.94864 | 72.54070 | 34820 ft | 476 kts | 51° |
| 2026-05-05 09:40 | 24.98381 | 72.60247 | 34817 ft | 476 kts | 52° |
| 2026-05-05 09:40 | 25.01895 | 72.66428 | 34807 ft | 476 kts | 52° |
| 2026-05-05 09:41 | 25.05405 | 72.72610 | 34820 ft | 476 kts | 52° |
| 2026-05-05 09:41 | 25.08917 | 72.78802 | 34820 ft | 476 kts | 52° |
| 2026-05-05 09:42 | 25.12424 | 72.84994 | 34817 ft | 476 kts | 52° |
| 2026-05-05 09:42 | 25.15929 | 72.91185 | 34820 ft | 475 kts | 51° |
| 2026-05-05 09:43 | 25.19454 | 72.97369 | 34821 ft | 476 kts | 51° |
| 2026-05-05 09:43 | 25.22987 | 73.03554 | 34817 ft | 477 kts | 51° |
| 2026-05-05 09:44 | 25.26521 | 73.09753 | 34826 ft | 477 kts | 51° |
| 2026-05-05 09:44 | 25.30049 | 73.15956 | 34826 ft | 477 kts | 51° |
| 2026-05-05 09:45 | 25.33572 | 73.22159 | 34822 ft | 476 kts | 51° |
| 2026-05-05 09:45 | 25.37090 | 73.28362 | 34834 ft | 476 kts | 51° |
| 2026-05-05 09:46 | 25.40608 | 73.34571 | 34836 ft | 477 kts | 52° |
| 2026-05-05 09:46 | 25.44144 | 73.40783 | 34837 ft | 477 kts | 51° |
| 2026-05-05 09:47 | 25.47675 | 73.46947 | 34854 ft | 477 kts | 51° |
| 2026-05-05 09:47 | 25.51253 | 73.53197 | 34848 ft | 477 kts | 51° |
| 2026-05-05 09:48 | 25.54779 | 73.59367 | 34849 ft | 477 kts | 51° |
| 2026-05-05 09:48 | 25.58323 | 73.65582 | 34871 ft | 477 kts | 51° |
| 2026-05-05 09:49 | 25.61870 | 73.71810 | 34866 ft | 478 kts | 52° |
| 2026-05-05 09:49 | 25.65415 | 73.78044 | 34883 ft | 478 kts | 51° |
| 2026-05-05 09:50 | 25.68384 | 73.83274 | 34878 ft | 478 kts | 51° |
| 2026-05-05 09:50 | 25.71923 | 73.89511 | 34872 ft | 478 kts | 51° |
| 2026-05-05 09:51 | 25.75457 | 73.95748 | 34880 ft | 477 kts | 51° |
| 2026-05-05 09:51 | 25.79570 | 74.02993 | 34887 ft | 478 kts | 51° |
| 2026-05-05 09:52 | 25.82580 | 74.08194 | 34887 ft | 478 kts | 51° |
| 2026-05-05 09:52 | 25.86188 | 74.14398 | 34887 ft | 478 kts | 51° |
| 2026-05-05 09:53 | 25.89768 | 74.20569 | 34884 ft | 478 kts | 51° |
| 2026-05-05 09:53 | 25.93363 | 74.26785 | 34890 ft | 478 kts | 51° |
| 2026-05-05 09:54 | 25.96955 | 74.33010 | 34892 ft | 478 kts | 51° |
| 2026-05-05 09:54 | 26.00543 | 74.39234 | 34897 ft | 479 kts | 51° |
| 2026-05-05 09:55 | 26.04142 | 74.45484 | 34892 ft | 480 kts | 51° |
| 2026-05-05 09:55 | 26.07732 | 74.51733 | 34897 ft | 479 kts | 51° |
| 2026-05-05 09:56 | 26.11320 | 74.57985 | 34898 ft | 479 kts | 51° |
| 2026-05-05 09:56 | 26.14907 | 74.64243 | 34897 ft | 479 kts | 52° |
| 2026-05-05 09:57 | 26.18492 | 74.70504 | 34897 ft | 479 kts | 52° |
| 2026-05-05 09:57 | 26.22072 | 74.76766 | 34897 ft | 480 kts | 52° |
| 2026-05-05 09:58 | 26.25653 | 74.83040 | 34894 ft | 480 kts | 52° |
| 2026-05-05 09:58 | 26.29228 | 74.89311 | 34894 ft | 480 kts | 52° |
| 2026-05-05 09:59 | 26.32801 | 74.95589 | 34893 ft | 480 kts | 52° |
| 2026-05-05 09:59 | 26.36372 | 75.01871 | 34891 ft | 480 kts | 52° |
| 2026-05-05 10:00 | 26.39940 | 75.08156 | 34904 ft | 480 kts | 52° |
| 2026-05-05 10:00 | 26.43516 | 75.14462 | 34891 ft | 481 kts | 52° |
| 2026-05-05 10:01 | 26.47095 | 75.20783 | 34890 ft | 482 kts | 52° |
| 2026-05-05 10:01 | 26.50669 | 75.27107 | 34887 ft | 482 kts | 52° |
| 2026-05-05 10:02 | 26.54243 | 75.33438 | 34887 ft | 482 kts | 52° |
| 2026-05-05 10:02 | 26.57812 | 75.39768 | 34884 ft | 482 kts | 52° |
| 2026-05-05 10:03 | 26.61381 | 75.46107 | 34886 ft | 482 kts | 52° |
| 2026-05-05 10:03 | 26.64953 | 75.52459 | 34886 ft | 483 kts | 52° |
| 2026-05-05 10:04 | 26.68526 | 75.58824 | 34886 ft | 483 kts | 52° |
| 2026-05-05 10:04 | 26.72095 | 75.65190 | 34909 ft | 483 kts | 52° |
| 2026-05-05 10:05 | 26.75638 | 75.71520 | 34925 ft | 483 kts | 52° |
| 2026-05-05 10:05 | 26.79206 | 75.77901 | 34919 ft | 484 kts | 53° |
| 2026-05-05 10:06 | 26.81910 | 75.84859 | 34893 ft | 496 kts | 74° |
| 2026-05-05 10:06 | 26.82500 | 75.92604 | 34891 ft | 503 kts | 87° |
| 2026-05-05 10:07 | 26.82415 | 76.00462 | 34891 ft | 506 kts | 90° |
| 2026-05-05 10:07 | 26.82223 | 76.08331 | 34889 ft | 506 kts | 90° |
| 2026-05-05 10:08 | 26.82064 | 76.16205 | 34898 ft | 506 kts | 90° |
| 2026-05-05 10:08 | 26.81937 | 76.24061 | 34899 ft | 505 kts | 89° |
| 2026-05-05 10:09 | 26.81816 | 76.31923 | 34894 ft | 505 kts | 89° |
| 2026-05-05 10:09 | 26.81691 | 76.39781 | 34897 ft | 505 kts | 90° |
| 2026-05-05 10:10 | 26.81561 | 76.47635 | 34892 ft | 504 kts | 89° |
| 2026-05-05 10:10 | 26.81508 | 76.55478 | 34898 ft | 504 kts | 89° |
| 2026-05-05 10:11 | 26.81512 | 76.63265 | 34897 ft | 503 kts | 89° |
| 2026-05-05 10:11 | 26.81512 | 76.71095 | 34901 ft | 503 kts | 89° |
| 2026-05-05 10:12 | 26.81498 | 76.78932 | 34898 ft | 503 kts | 89° |
| 2026-05-05 10:12 | 26.81475 | 76.86766 | 34904 ft | 503 kts | 89° |
| 2026-05-05 10:13 | 26.81447 | 76.94599 | 34908 ft | 503 kts | 89° |
| 2026-05-05 10:13 | 26.81415 | 77.02424 | 34908 ft | 503 kts | 89° |
| 2026-05-05 10:14 | 26.81379 | 77.10248 | 34911 ft | 503 kts | 89° |
| 2026-05-05 10:14 | 26.81338 | 77.18076 | 34910 ft | 503 kts | 90° |
| 2026-05-05 10:15 | 26.81253 | 77.25904 | 34913 ft | 503 kts | 90° |
| 2026-05-05 10:15 | 26.81143 | 77.33742 | 34910 ft | 504 kts | 90° |
| 2026-05-05 10:16 | 26.81029 | 77.41595 | 34905 ft | 505 kts | 90° |
| 2026-05-05 10:16 | 26.80914 | 77.49449 | 34905 ft | 504 kts | 90° |
| 2026-05-05 10:17 | 26.80797 | 77.57297 | 34897 ft | 504 kts | 90° |
| 2026-05-05 10:17 | 26.80677 | 77.65140 | 34899 ft | 503 kts | 91° |
| 2026-05-05 10:18 | 26.80552 | 77.72952 | 34891 ft | 501 kts | 91° |
| 2026-05-05 10:18 | 26.80424 | 77.80742 | 34891 ft | 501 kts | 91° |
| 2026-05-05 10:19 | 26.80292 | 77.88490 | 34886 ft | 501 kts | 91° |
| 2026-05-05 10:19 | 26.80156 | 77.96282 | 34890 ft | 501 kts | 91° |
| 2026-05-05 10:20 | 26.80014 | 78.04082 | 34883 ft | 501 kts | 91° |
| 2026-05-05 10:20 | 26.79869 | 78.11878 | 34880 ft | 501 kts | 91° |
| 2026-05-05 10:21 | 26.79719 | 78.19671 | 34881 ft | 501 kts | 91° |
| 2026-05-05 10:21 | 26.79565 | 78.27465 | 34881 ft | 501 kts | 91° |
| 2026-05-05 10:22 | 26.79407 | 78.35261 | 34880 ft | 501 kts | 91° |
| 2026-05-05 10:22 | 26.79245 | 78.43054 | 34881 ft | 501 kts | 91° |
| 2026-05-05 10:23 | 26.79078 | 78.50852 | 34881 ft | 501 kts | 91° |
| 2026-05-05 10:23 | 26.78907 | 78.58647 | 34880 ft | 501 kts | 91° |
| 2026-05-05 10:24 | 26.78732 | 78.66440 | 34878 ft | 501 kts | 92° |
| 2026-05-05 10:24 | 26.78553 | 78.74235 | 34881 ft | 501 kts | 92° |
| 2026-05-05 10:25 | 26.78369 | 78.82030 | 34883 ft | 501 kts | 92° |
| 2026-05-05 10:25 | 26.78183 | 78.89769 | 34883 ft | 501 kts | 92° |
| 2026-05-05 10:26 | 26.77991 | 78.97559 | 34881 ft | 501 kts | 92° |
| 2026-05-05 10:26 | 26.77795 | 79.05355 | 34886 ft | 501 kts | 92° |
| 2026-05-05 10:27 | 26.77635 | 79.13145 | 34886 ft | 501 kts | 92° |
| 2026-05-05 10:27 | 26.77550 | 79.20930 | 34886 ft | 500 kts | 91° |
| 2026-05-05 10:28 | 26.77471 | 79.28717 | 34883 ft | 500 kts | 91° |
| 2026-05-05 10:28 | 26.77379 | 79.36504 | 34883 ft | 500 kts | 92° |
| 2026-05-05 10:29 | 26.77278 | 79.44285 | 34884 ft | 501 kts | 92° |
| 2026-05-05 10:29 | 26.77170 | 79.52086 | 34883 ft | 502 kts | 92° |
| 2026-05-05 10:30 | 26.77058 | 79.59896 | 34883 ft | 502 kts | 92° |
| 2026-05-05 10:30 | 26.76943 | 79.67710 | 34883 ft | 502 kts | 92° |
| 2026-05-05 10:31 | 26.76823 | 79.75515 | 34881 ft | 501 kts | 92° |
| 2026-05-05 10:31 | 26.76699 | 79.83312 | 34881 ft | 501 kts | 92° |
| 2026-05-05 10:32 | 26.76571 | 79.91108 | 34878 ft | 501 kts | 92° |
| 2026-05-05 10:32 | 26.76438 | 79.98898 | 34878 ft | 501 kts | 92° |
| 2026-05-05 10:33 | 26.76301 | 80.06684 | 34878 ft | 501 kts | 92° |
| 2026-05-05 10:33 | 26.76163 | 80.14420 | 34877 ft | 501 kts | 92° |
| 2026-05-05 10:34 | 26.76110 | 80.22215 | 34878 ft | 501 kts | 92° |
| 2026-05-05 10:34 | 26.76102 | 80.30014 | 34878 ft | 502 kts | 92° |
| 2026-05-05 10:35 | 26.76087 | 80.37822 | 34876 ft | 502 kts | 92° |
| 2026-05-05 10:35 | 26.76059 | 80.45624 | 34878 ft | 501 kts | 92° |
| 2026-05-05 10:36 | 26.76023 | 80.53429 | 34878 ft | 501 kts | 92° |
| 2026-05-05 10:36 | 26.75982 | 80.61229 | 34878 ft | 501 kts | 92° |
| 2026-05-05 10:37 | 26.75937 | 80.69030 | 34867 ft | 501 kts | 92° |
| 2026-05-05 10:37 | 26.75888 | 80.76822 | 34872 ft | 502 kts | 92° |
| 2026-05-05 10:38 | 26.75834 | 80.84625 | 34864 ft | 501 kts | 92° |
| 2026-05-05 10:38 | 26.76053 | 80.91105 | 34862 ft | 502 kts | 86° |
| 2026-05-05 10:39 | 26.76815 | 80.98865 | 34864 ft | 501 kts | 84° |
| 2026-05-05 10:39 | 26.77678 | 81.06602 | 34865 ft | 501 kts | 84° |
| 2026-05-05 10:40 | 26.78550 | 81.14338 | 34869 ft | 501 kts | 84° |
| 2026-05-05 10:40 | 26.79407 | 81.22079 | 34868 ft | 501 kts | 84° |
| 2026-05-05 10:41 | 26.80252 | 81.29822 | 34869 ft | 501 kts | 85° |
| 2026-05-05 10:41 | 26.81091 | 81.37561 | 34867 ft | 500 kts | 85° |
| 2026-05-05 10:42 | 26.82340 | 81.49153 | 34867 ft | 500 kts | 85° |
| 2026-05-05 10:43 | 26.83168 | 81.56884 | 34858 ft | 500 kts | 85° |
| 2026-05-05 10:43 | 26.83992 | 81.64618 | 34858 ft | 500 kts | 85° |
| 2026-05-05 10:44 | 26.84812 | 81.72361 | 34857 ft | 501 kts | 85° |
| 2026-05-05 10:44 | 26.85627 | 81.80094 | 34848 ft | 500 kts | 85° |
| 2026-05-05 10:45 | 26.86438 | 81.87828 | 34845 ft | 500 kts | 85° |
| 2026-05-05 10:45 | 26.87244 | 81.95565 | 34842 ft | 500 kts | 85° |
| 2026-05-05 10:46 | 26.88047 | 82.03303 | 34837 ft | 500 kts | 85° |
| 2026-05-05 10:46 | 26.88846 | 82.11046 | 34838 ft | 500 kts | 85° |
| 2026-05-05 10:47 | 26.89639 | 82.18786 | 34838 ft | 500 kts | 85° |
| 2026-05-05 10:47 | 26.90429 | 82.26528 | 34838 ft | 500 kts | 85° |
| 2026-05-05 10:48 | 26.91209 | 82.34213 | 34839 ft | 500 kts | 85° |
| 2026-05-05 10:48 | 26.91991 | 82.41961 | 34851 ft | 500 kts | 85° |